Cottonwood, ID (83522)

7:27 AM PST on December 27, 2014 (GMT -0800)
ITD Concrete Section ID US | Change Station
CLOSE
Current Station
Personal Weather Station
Location: Cottonwood, ID
Elevation: 3401 ft
Nearby Weather Stations
Active Advisory: Winter Weather Advisory

Elev 3401 ft 46.00 °N, 116.33 °W | Updated 42 minutes ago

Overcast
Overcast
27 °F
Feels Like 20 °F
N
6
Wind Variable Wind from SSE
Gusts 8.0 mph

Today
High -- | Low -- °F
--% Chance of Precip.
Yesterday
High -- | Low -- °F
Precip. -- in
7:26 AM 4:06 PM
Waxing Crescent, 37% visible
Pressure 30.21 in
Visibility 10.0 miles
Clouds Scattered Clouds 3900 ft
Mostly Cloudy 6000 ft
Overcast 7000 ft
Windchill 20 °F
Dew Point 23 °F
Humidity 84%
Rainfall 0.00 in
Snow Depth Not available.
UV 0 out of 12
Pollen .10 out of 12
Air Quality Not available.
Flu Activity Not available.
METAR KGIC 271515Z AUTO 21016G26KT 10SM SCT039 BKN060 OVC070 00/M08 A3021 RMK AO1 T10051080

More Conditions Fewer Conditions

Pressure 30.21 in
Visibility 10.0 miles
Clouds Scattered Clouds 3900 ft
Mostly Cloudy 6000 ft
Overcast 7000 ft
Windchill 20 °F
Dew Point 23 °F
Humidity 84%
Rainfall 0.00 in
Snow Depth Not available.
UV 0 out of 12
Pollen .10 out of 12
Air Quality Not available.
Flu Activity Not available.
METAR KGIC 271515Z AUTO 21016G26KT 10SM SCT039 BKN060 OVC070 00/M08 A3021 RMK AO1 T10051080

More Conditions Fewer Conditions

10-Day Weather Forecast

Almanac

Astronomy

Dec. 27, 2014 Rise Set
Actual Time
Civil Twilight
Nautical Twilight
Astronomical Twilight
Moon
Length of Visible Light
Length of Day
Tomorrow will be .
, % of the Moon is Illuminated

Today's Extremes

State Highs State Lows

Community

WunderPhotos

Upload Photos

1,780,932 photos uploaded!

WunderBlogs® & News

Nearby

Air Quality

  Air Quality AQ Index Pollutant
Not available.

Snow Depth

Station Depth Elevation

Earthquake Activity

City Distance Mag. Time & Date
Minimum magnitude displayed is 2.5.

Coastal Water Temperatures

Place Temperature

Nearby Weather Stations